CST,Max TemperatureF,Mean TemperatureF,Min TemperatureF,Max Dew PointF,MeanDew PointF,Min DewpointF,Max Humidity, Mean Humidity, Min Humidity, Max Sea Level PressureIn, Mean Sea Level PressureIn, Min Sea Level PressureIn, Max VisibilityMiles, Mean VisibilityMiles, Min VisibilityMiles, Max Wind SpeedMPH, Mean Wind SpeedMPH, Max Gust SpeedMPH,PrecipitationIn, CloudCover, Events, WindDirDegrees
2013-12-1,64,52,39,54,49,40,100,94,68,30.13,30.04,29.90,10,7,0,7,1,,0.00,1,Fog,180
2013-12-2,60,50,39,54,45,40,100,98,72,29.90,29.78,29.68,10,2,0,5,1,,0.00,6,Fog,353
2013-12-3,66,56,46,54,48,46,100,93,49,29.68,29.59,29.52,10,4,0,8,4,,0.00,5,Fog,129
2013-12-4,55,44,32,46,37,28,100,85,54,29.99,29.70,29.54,10,6,0,16,4,32,0.00,2,Fog,355
2013-12-5,35,30,23,28,22,18,93,73,58,30.23,30.13,30.00,10,9,3,23,16,31,0.00,7,Snow,4
2013-12-6,26,22,18,23,19,9,96,83,66,30.55,30.34,30.20,10,7,1,20,13,24,0.08,6,Snow,2
2013-12-7,30,22,14,19,11,6,78,70,37,30.60,30.49,30.27,10,10,10,14,7,17,0.00,2,,12
2013-12-8,37,30,23,28,24,18,100,88,70,30.25,30.16,30.01,10,8,4,12,2,,0.00,6,,250
2013-12-9,33,27,21,27,23,17,100,87,69,30.43,30.26,30.18,10,10,7,15,5,21,0.00,2,,359
2013-12-10,41,28,14,20,16,12,93,77,42,30.50,30.40,30.31,10,10,10,10,5,,0.00,0,,284
2013-12-11,44,30,17,28,22,16,100,82,53,30.60,30.43,30.29,10,9,7,14,2,18,0.00,0,,30
2013-12-12,46,34,21,32,26,19,96,79,53,30.62,30.50,30.27,10,10,5,7,3,,0.00,1,,126
2013-12-13,44,40,37,43,37,32,100,90,75,30.27,30.04,29.77,10,8,0,12,6,18,0.00,4,Fog,142
2013-12-14,42,34,25,43,37,25,100,95,65,30.32,30.01,29.82,7,3,1,23,5,31,0.00,6,,353
2013-12-15,37,30,22,32,26,22,100,96,80,30.30,30.27,30.19,10,5,2,0,0,,0.00,0,,-1
2013-12-16,66,45,24,37,32,25,100,82,35,30.22,30.17,30.12,10,10,10,7,1,,0.00,0,,184
2013-12-17,73,50,27,39,32,28,100,78,27,30.29,30.23,30.17,10,9,2,6,0,,0.00,0,,311
2013-12-18,69,48,28,48,37,28,100,79,35,30.27,30.14,29.96,10,10,5,17,3,22,0.00,0,,160
2013-12-19,68,60,53,58,53,48,88,80,68,29.94,29.83,29.72,10,10,10,21,8,29,0.00,2,,165
2013-12-20,63,48,32,61,46,32,100,93,81,29.92,29.82,29.73,10,7,2,22,7,31,0.43,7,Rain-Snow-Thunderstorm,306
2013-12-21,37,34,32,37,35,32,100,99,93,29.82,29.72,29.57,10,6,1,8,4,,0.65,8,Rain-Snow-Thunderstorm,336
2013-12-22,37,32,26,35,29,24,95,86,70,30.40,30.06,29.82,10,10,10,16,9,21,0.00,6,,331
2013-12-23,41,31,21,28,25,21,100,90,61,30.59,30.48,30.39,10,10,10,12,3,,0.00,5,,28
2013-12-24,50,36,21,34,28,21,100,85,54,30.56,30.42,30.23,10,8,4,14,5,21,0.00,3,,98
2013-12-25,44,34,25,36,31,26,100,90,70,30.43,30.32,30.26,10,9,3,16,5,22,0.00,0,,32
2013-12-26,55,39,23,36,28,23,100,90,38,30.45,30.40,30.32,10,6,0,5,1,,0.00,0,Fog,305
2013-12-27,59,40,21,34,28,21,100,85,31,30.44,30.38,30.32,10,10,10,6,0,,0.00,0,,173
2013-12-28,60,43,26,43,33,25,100,85,51,30.32,30.17,29.95,10,10,7,13,1,20,0.00,1,,149
2013-12-29,45,37,28,39,31,17,100,83,62,30.30,30.07,29.94,10,10,7,22,5,32,0.00,4,,1
2013-12-30,42,30,19,23,18,12,94,68,39,30.40,30.31,30.26,10,10,10,12,7,16,0.00,2,,339
2013-12-31,55,36,17,29,24,16,100,77,36,30.41,30.32,30.18,10,10,10,13,2,,0.00,0,,149